Flight Track Log - Related Links

Times and Time Zones

All times are in EDT time to prevent confusion due to time zone crossing. See the ASQ6041 flight status page for this flight to view local times or setup timezone preferences in your user account.

Time Position Orientation Groundspeed Altitude Reporting Facility
EDT Latitude Longitude Course Direction KTS MPH feet Rate Location/Type
Fri 01:54:32 PM 40.7764 -96.7992 218° Southwest 205 236 4,600  Level Minneapolis Center
Fri 01:55:13 PM 40.7667 -96.8275 246° West 196 226 5,900 2,155 Climbing Minneapolis Center
Fri 01:56:00 PM 40.8162 -97.1408 253° West  Level Estimated
Fri 01:56:15 PM 40.7489 -96.9350 258° West 258 297 8,300  Level Minneapolis Center
Fri 01:57:00 PM 40.8043 -97.2679 257° West  Level Estimated
Fri 01:57:18 PM 40.7403 -97.0336 263° West 271 312 10,900  Level Minneapolis Center
Fri 01:58:00 PM 40.7858 -97.3936 259° West  Level FlightAware
Fri 01:58:20 PM 40.7289 -97.1483 263° West 304 350 11,900  Level Minneapolis Center
Fri 01:59:24 PM 40.7181 -97.2781 264° West 346 398 13,800 2,000 Climbing Minneapolis Center
Fri 02:00:26 PM 40.7036 -97.4242 263° West 354 407 16,100 1,935 Climbing Minneapolis Center
Fri 02:01:28 PM 40.6908 -97.5553 263° West 359 413 17,800 1,645 Climbing Minneapolis Center
Fri 02:02:30 PM 40.6792 -97.6897 264° West 366 421 19,500 1,728 Climbing Minneapolis Center
Fri 02:03:33 PM 40.6650 -97.8253 262° West 370 426 21,400 1,872 Climbing Minneapolis Center
Fri 02:04:35 PM 40.6486 -97.9875 262° West 372 428 23,400 1,887 Climbing Minneapolis Center
Fri 02:05:37 PM 40.6356 -98.1247 263° West 374 430 25,300 1,839 Climbing Minneapolis Center
Fri 02:06:39 PM 40.6208 -98.2586 262° West 372 428 27,200 1,839 Climbing Minneapolis Center
Fri 02:07:41 PM 40.6075 -98.3925 263° West 369 425 29,100 1,355 Climbing Minneapolis Center
Fri 02:08:43 PM 40.6117 -98.5256 272° West 368 423 30,000 435 Climbing Minneapolis Center
Fri 02:09:45 PM 40.6253 -98.6722 277° West 391 450 30,000  Level Minneapolis Center
Fri 02:10:47 PM 40.6389 -98.8325 276° West 421 484 30,000  Level Minneapolis Center
Fri 02:11:49 PM 40.6578 -99.0350 277° West 451 519 30,000  Level Minneapolis Center
Fri 02:12:51 PM 40.6725 -99.2064 277° West 462 532 30,000  Level Minneapolis Center
Fri 02:13:26 PM 40.6808 -99.3078 276° West 464 534 30,000  Level Denver Center
Fri 02:14:28 PM 40.6956 -99.4772 277° West 463 533 30,000  Level Denver Center
Fri 02:15:30 PM 40.7083 -99.6464 276° West 462 532 30,000  Level Denver Center
Fri 02:16:32 PM 40.7192 -99.7814 276° West 462 532 30,000  Level Denver Center
Fri 02:17:34 PM 40.7353 -99.9794 276° West 461 531 30,000  Level Denver Center
Fri 02:18:36 PM 40.7494 -100.1675 276° West 461 531 30,000  Level Denver Center
Fri 02:19:38 PM 40.7619 -100.3281 276° West 460 529 30,000  Level Denver Center
Fri 02:20:41 PM 40.7547 -100.5164 267° West 460 529 30,000  Level Denver Center
Fri 02:21:43 PM 40.7303 -100.6806 259° West 467 537 30,000  Level Denver Center
Fri 02:22:57 PM 40.7050 -100.8486 259° West 475 547 30,000  Level Denver Center
Fri 02:23:59 PM 40.6717 -101.0644 259° West 468 539 30,000  Level Denver Center
Fri 02:25:01 PM 40.6425 -101.2514 258° West 466 536 30,000  Level Denver Center
Fri 02:26:03 PM 40.6178 -101.4114 259° West 466 536 30,000  Level Denver Center
Fri 02:27:05 PM 40.5875 -101.5986 258° West 468 539 30,000  Level Denver Center
Fri 02:28:08 PM 40.5617 -101.7583 258° West 467 537 30,000  Level Denver Center
Fri 02:29:10 PM 40.5361 -101.9175 258° West 466 536 30,000  Level Denver Center
Fri 02:30:12 PM 40.5058 -102.1036 258° West 466 536 30,000  Level Denver Center
Fri 02:31:14 PM 40.4792 -102.2633 258° West 468 539 30,000  Level Denver Center
Fri 02:32:16 PM 40.4483 -102.4494 258° West 468 539 30,000  Level Denver Center
Fri 02:33:18 PM 40.4219 -102.6078 258° West 465 535 30,000  Level Denver Center
Fri 02:34:20 PM 40.3942 -102.7719 258° West 468 539 30,000  Level Denver Center
Fri 02:35:22 PM 40.3594 -102.9711 257° West 470 541 30,000 -726 Level Denver Center
Fri 02:36:24 PM 40.3311 -103.1378 257° West 471 542 28,500 -2,274 Descending Denver Center
Fri 02:37:26 PM 40.3017 -103.3039 257° West 470 541 25,300 -3,048 Descending Denver Center
Fri 02:38:28 PM 40.2742 -103.4581 257° West 441 507 22,200 -2,710 Descending Denver Center
Fri 02:39:30 PM 40.2481 -103.6017 257° West 410 472 19,700 -2,177 Descending Denver Center
Fri 02:40:32 PM 40.2211 -103.7436 256° West 370 426 17,700 -1,632 Descending Denver Center
Fri 02:41:35 PM 40.1917 -103.8703 253° West 339 390 16,300 -1,392 Descending Denver Center
Fri 02:42:37 PM 40.1589 -104.0028 252° West 375 432 14,800 -1,258 Descending Denver Center
Fri 02:43:39 PM 40.1228 -104.1472 252° West 394 453 13,700 -823 Descending Denver Center
Fri 02:44:41 PM 40.0533 -104.2047 212° Southwest 314 361 13,100 -726 Descending Denver Center
Fri 02:45:43 PM 39.9786 -104.2347 197° South 269 310 12,200 -1,161 Descending Denver Center
Fri 02:46:45 PM 39.9208 -104.2828 213° Southwest 248 285 10,700 -1,403 Descending Denver Center
Fri 02:47:47 PM 39.8847 -104.3681 241° Southwest 254 292 9,300 -1,548 Descending Denver Center
Fri 02:48:49 PM 39.8756 -104.4611 263° West 251 289 7,500 -1,324 Descending Denver Center
Fri 02:50:12 PM 39.8833 -104.5667 276° West 171 197 6,100 -633 Descending Denver TRACON
Fri 02:52:08 PM 39.8786 -104.6503 266° West 138 159 5,400 -362 Descending Denver Center

Login

Don't have an account? Register now (free) for customized features, flight alerts, and more!